Time;durP1;ratioP1;P1;durP2;ratioP2;P2;SDS_P1;SDS_P2;PMS_P1;PMS_P2;Temp;Humidity;BMP_temperature;BMP_pressure;BME280_temperature;BME280_humidity;BME280_pressure;Samples;Min_cycle;Max_cycle;Signal;HPM_P1;HPM_P2
2021/03/03 00:01:52;;;;;;;38.33;21.55;;;5.00;91.20;;;;;;5073331;28;20081;-56
2021/03/03 00:04:18;;;;;;;40.03;21.67;;;4.90;91.20;;;;;;5071345;28;20072;-56
2021/03/03 00:06:43;;;;;;;36.72;21.27;;;5.00;91.40;;;;;;5072796;28;20043;-57
2021/03/03 00:09:09;;;;;;;37.80;21.35;;;4.90;91.30;;;;;;5073395;28;20036;-57
2021/03/03 00:11:34;;;;;;;40.95;22.48;;;4.90;91.40;;;;;;5073859;28;20052;-57
2021/03/03 00:14:00;;;;;;;39.90;22.85;;;4.90;91.40;;;;;;5073194;28;20032;-58
2021/03/03 00:16:26;;;;;;;39.70;21.75;;;4.90;91.50;;;;;;5070807;28;20432;-57
2021/03/03 00:18:52;;;;;;;36.17;23.02;;;4.90;91.50;;;;;;5073500;28;20037;-57
2021/03/03 00:21:18;;;;;;;33.13;21.15;;;4.90;91.60;;;;;;5072719;28;20097;-57
2021/03/03 00:23:44;;;;;;;38.25;22.42;;;4.90;91.40;;;;;;5041910;28;20066;-57
2021/03/03 00:26:10;;;;;;;37.35;22.42;;;4.90;91.40;;;;;;5074256;28;20048;-57
2021/03/03 00:28:35;;;;;;;32.22;20.27;;;4.80;91.50;;;;;;5074445;28;20089;-56
2021/03/03 00:31:01;;;;;;;37.38;21.65;;;4.80;91.50;;;;;;5069249;28;20064;-57
2021/03/03 00:33:27;;;;;;;34.67;20.73;;;4.80;91.50;;;;;;5071642;28;20040;-56
2021/03/03 00:35:53;;;;;;;34.38;20.15;;;4.80;91.50;;;;;;5072647;28;20053;-55
2021/03/03 00:38:19;;;;;;;35.38;20.38;;;4.80;91.50;;;;;;5073746;28;20407;-55
2021/03/03 00:40:44;;;;;;;34.47;20.25;;;4.70;91.50;;;;;;5072837;28;20044;-54
2021/03/03 00:43:10;;;;;;;36.75;21.10;;;4.70;91.60;;;;;;5072338;28;20115;-56
2021/03/03 00:45:36;;;;;;;37.50;20.85;;;4.70;91.60;;;;;;5073900;28;20514;-56
2021/03/03 00:48:01;;;;;;;35.92;21.05;;;4.80;91.70;;;;;;5073471;28;20072;-55
2021/03/03 00:50:27;;;;;;;40.70;21.65;;;4.70;91.70;;;;;;5073525;28;20043;-55
2021/03/03 00:52:53;;;;;;;37.10;21.70;;;4.70;91.70;;;;;;5067316;28;20052;-53
2021/03/03 00:55:18;;;;;;;35.90;21.10;;;4.70;91.60;;;;;;5073243;28;20044;-57
2021/03/03 00:57:45;;;;;;;33.75;21.02;;;4.70;91.60;;;;;;5072781;28;20075;-56
2021/03/03 01:00:12;;;;;;;34.05;20.25;;;4.60;91.50;;;;;;5081244;28;20044;-58
2021/03/03 01:02:37;;;;;;;36.47;20.25;;;4.60;91.60;;;;;;5067201;28;20072;-55
2021/03/03 01:05:03;;;;;;;34.08;19.50;;;4.60;91.60;;;;;;5077810;28;20063;-53
2021/03/03 01:07:29;;;;;;;29.95;18.48;;;4.60;91.60;;;;;;5072834;28;20037;-55
2021/03/03 01:09:55;;;;;;;36.28;19.58;;;4.60;91.60;;;;;;5078262;28;20079;-53
2021/03/03 01:12:20;;;;;;;30.45;18.83;;;4.60;91.70;;;;;;5073779;28;20047;-57
2021/03/03 01:14:46;;;;;;;35.13;20.10;;;4.60;91.70;;;;;;5073475;28;20438;-55
2021/03/03 01:17:12;;;;;;;30.90;18.10;;;4.60;91.70;;;;;;5064422;28;20036;-53
2021/03/03 01:19:38;;;;;;;30.17;18.50;;;4.60;91.70;;;;;;5072653;28;20044;-56
2021/03/03 01:22:04;;;;;;;30.70;18.77;;;4.50;91.70;;;;;;5064468;28;20153;-54
2021/03/03 01:24:30;;;;;;;31.25;19.17;;;4.50;91.60;;;;;;5072890;28;20028;-55
2021/03/03 01:26:56;;;;;;;32.55;18.77;;;4.50;91.60;;;;;;5077379;28;20596;-54
2021/03/03 01:29:22;;;;;;;34.63;19.55;;;4.40;91.70;;;;;;5089451;28;20090;-56
2021/03/03 01:31:47;;;;;;;35.20;18.85;;;4.40;91.70;;;;;;5072953;28;20059;-56
2021/03/03 01:34:13;;;;;;;31.45;19.20;;;4.40;91.60;;;;;;5075979;28;20122;-54
2021/03/03 01:36:39;;;;;;;29.65;18.35;;;4.30;91.60;;;;;;5072440;28;20492;-53
2021/03/03 01:39:05;;;;;;;35.50;19.65;;;4.30;91.70;;;;;;5072020;28;20043;-55
2021/03/03 01:41:31;;;;;;;35.03;19.13;;;4.30;91.70;;;;;;5070736;28;20128;-55
2021/03/03 01:43:57;;;;;;;35.15;20.23;;;4.30;91.80;;;;;;5078712;28;20063;-55
2021/03/03 01:46:23;;;;;;;36.58;20.50;;;4.30;91.90;;;;;;5061523;28;20059;-52
2021/03/03 01:48:49;;;;;;;31.95;18.67;;;4.30;91.80;;;;;;5080598;28;20044;-56
2021/03/03 01:51:15;;;;;;;33.42;20.05;;;4.30;91.80;;;;;;5076825;28;20075;-53
2021/03/03 01:53:42;;;;;;;33.47;20.63;;;4.30;91.70;;;;;;5072795;28;20048;-55
2021/03/03 01:56:08;;;;;;;34.75;20.15;;;4.40;91.70;;;;;;5073427;28;20040;-55
2021/03/03 01:58:34;;;;;;;35.95;19.75;;;4.40;91.80;;;;;;5070993;28;20401;-55
2021/03/03 02:01:00;;;;;;;35.72;21.17;;;4.40;91.70;;;;;;5071757;28;20037;-55
2021/03/03 02:03:26;;;;;;;33.30;20.08;;;4.40;91.70;;;;;;5070600;28;20078;-57
2021/03/03 02:06:00;;;;;;;38.75;21.02;;;4.40;91.60;;;;;;5072474;28;20067;-55
2021/03/03 02:08:37;;;;;;;35.75;20.35;;;4.40;91.60;;;;;;5072090;28;20051;-54
2021/03/03 02:11:12;;;;;;;33.55;19.75;;;4.40;91.70;;;;;;5070246;28;20044;-54
2021/03/03 02:13:45;;;;;;;33.85;20.45;;;4.40;91.60;;;;;;5071252;28;20504;-56
2021/03/03 02:16:13;;;;;;;32.88;20.25;;;4.40;91.60;;;;;;5066450;28;20043;-53
2021/03/03 02:18:40;;;;;;;35.42;21.55;;;4.40;91.60;;;;;;5074430;28;20098;-54
2021/03/03 02:21:28;;;;;;;35.92;20.63;;;4.40;91.60;;;;;;5069870;28;20046;-55
2021/03/03 02:24:14;;;;;;;33.53;20.90;;;4.30;91.60;;;;;;5070977;28;20436;-55
2021/03/03 02:26:42;;;;;;;35.65;19.67;;;4.30;91.60;;;;;;5070750;28;20054;-52
2021/03/03 02:29:13;;;;;;;36.22;20.88;;;4.30;91.60;;;;;;5070668;28;20529;-54
2021/03/03 02:31:42;;;;;;;38.78;20.35;;;4.30;91.60;;;;;;5072721;28;20113;-53
2021/03/03 02:34:08;;;;;;;31.35;19.80;;;4.30;91.80;;;;;;5062389;28;20211;-55
2021/03/03 02:36:37;;;;;;;35.67;20.15;;;4.30;91.70;;;;;;5072082;28;20113;-55
2021/03/03 02:39:05;;;;;;;35.22;19.70;;;4.20;91.80;;;;;;5089545;28;20287;-56
2021/03/03 02:41:33;;;;;;;34.83;20.42;;;4.20;91.70;;;;;;5071922;28;20496;-55
2021/03/03 02:44:04;;;;;;;36.90;20.25;;;4.20;91.70;;;;;;5077467;28;20024;-57
2021/03/03 02:46:32;;;;;;;36.08;20.55;;;4.10;91.60;;;;;;5071075;28;20127;-57
2021/03/03 02:48:59;;;;;;;35.85;19.88;;;4.00;91.70;;;;;;5069989;28;20519;-55
2021/03/03 02:51:25;;;;;;;32.08;19.35;;;4.00;91.70;;;;;;5078564;28;20064;-57
2021/03/03 02:53:51;;;;;;;33.33;20.17;;;4.00;91.80;;;;;;5079314;28;20095;-56
2021/03/03 02:56:16;;;;;;;35.20;20.20;;;4.00;91.80;;;;;;5072367;28;20128;-55
2021/03/03 02:58:43;;;;;;;35.00;19.27;;;3.90;91.70;;;;;;5072785;28;20033;-55
2021/03/03 03:01:12;;;;;;;30.58;18.50;;;3.90;91.70;;;;;;5067184;28;20033;-57
2021/03/03 03:04:00;;;;;;;34.10;19.33;;;3.90;91.80;;;;;;5068158;28;20056;-56
2021/03/03 03:06:32;;;;;;;32.53;19.17;;;3.80;91.70;;;;;;5068105;28;20060;-56
2021/03/03 03:09:01;;;;;;;31.67;19.85;;;3.80;91.80;;;;;;5076939;28;20029;-56
2021/03/03 03:11:31;;;;;;;30.38;18.40;;;3.80;91.70;;;;;;5074538;28;20033;-55
2021/03/03 03:14:05;;;;;;;31.83;18.13;;;3.80;91.70;;;;;;5060235;28;20056;-56
2021/03/03 03:16:32;;;;;;;29.95;18.70;;;3.80;91.70;;;;;;5071301;28;20037;-56
2021/03/03 03:18:59;;;;;;;33.45;18.63;;;3.80;91.70;;;;;;5073886;28;20496;-55
2021/03/03 03:21:30;;;;;;;29.45;17.63;;;3.70;91.70;;;;;;5071532;28;20524;-56
2021/03/03 03:23:59;;;;;;;36.25;17.33;;;3.70;91.70;;;;;;5074232;28;20036;-55
2021/03/03 03:26:27;;;;;;;28.77;16.98;;;3.80;91.80;;;;;;5073416;28;20036;-56
2021/03/03 03:28:54;;;;;;;30.60;17.92;;;3.80;91.70;;;;;;5074514;28;20051;-56
2021/03/03 03:31:20;;;;;;;28.27;17.60;;;3.70;91.70;;;;;;5073465;28;20067;-56
2021/03/03 03:33:49;;;;;;;29.27;17.25;;;3.70;91.70;;;;;;5074540;28;20508;-57
2021/03/03 03:36:15;;;;;;;29.98;17.98;;;3.70;91.70;;;;;;5073681;28;20044;-56
2021/03/03 03:38:41;;;;;;;32.53;18.20;;;3.70;91.70;;;;;;5075237;28;20382;-54
2021/03/03 03:41:08;;;;;;;27.27;16.30;;;3.70;91.80;;;;;;5068457;28;20057;-56
2021/03/03 03:43:35;;;;;;;29.75;18.40;;;3.60;91.80;;;;;;5074209;28;20028;-56
2021/03/03 03:46:02;;;;;;;29.50;17.52;;;3.60;91.90;;;;;;5072693;28;20033;-55
2021/03/03 03:48:29;;;;;;;26.45;17.17;;;3.60;91.90;;;;;;5074422;28;20056;-55
2021/03/03 03:50:55;;;;;;;25.60;16.13;;;3.50;91.90;;;;;;5074475;28;20051;-55
2021/03/03 03:53:22;;;;;;;26.88;16.70;;;3.50;91.90;;;;;;5071608;28;20111;-56
2021/03/03 03:55:48;;;;;;;25.33;16.10;;;3.50;91.90;;;;;;5074723;28;20487;-56
2021/03/03 03:58:13;;;;;;;23.63;15.80;;;3.50;91.90;;;;;;5073289;28;20032;-56
2021/03/03 04:00:39;;;;;;;25.02;15.93;;;3.50;91.90;;;;;;5073256;28;20455;-56
2021/03/03 04:03:05;;;;;;;31.48;19.25;;;3.50;91.90;;;;;;5072313;28;20040;-56
2021/03/03 04:05:31;;;;;;;35.67;19.80;;;3.60;91.90;;;;;;5070172;28;20041;-56
2021/03/03 04:07:57;;;;;;;37.05;21.63;;;3.70;92.10;;;;;;5068431;28;20036;-56
2021/03/03 04:10:28;;;;;;;34.90;21.05;;;3.80;92.20;;;;;;5073284;28;20041;-57
2021/03/03 04:12:55;;;;;;;29.60;18.73;;;3.90;92.20;;;;;;5073818;28;20037;-55
2021/03/03 04:15:22;;;;;;;31.15;19.52;;;4.00;92.10;;;;;;5070240;28;20040;-56
2021/03/03 04:17:48;;;;;;;28.08;17.52;;;4.00;92.10;;;;;;5074099;28;20082;-53
2021/03/03 04:20:15;;;;;;;28.55;17.08;;;4.00;92.00;;;;;;5077589;28;20063;-56
2021/03/03 04:22:41;;;;;;;27.60;16.55;;;4.10;92.00;;;;;;5076222;28;20089;-55
2021/03/03 04:25:10;;;;;;;28.50;17.23;;;4.00;92.10;;;;;;5075622;28;20101;-55
2021/03/03 04:27:36;;;;;;;27.58;16.33;;;4.00;91.80;;;;;;5069409;28;20055;-55
2021/03/03 04:30:07;;;;;;;30.02;17.17;;;4.00;91.80;;;;;;5075287;28;20411;-55
2021/03/03 04:32:33;;;;;;;27.60;17.15;;;3.90;91.80;;;;;;5077751;28;20036;-52
2021/03/03 04:34:59;;;;;;;24.77;14.43;;;4.00;91.80;;;;;;5073578;28;20043;-56
2021/03/03 04:37:25;;;;;;;27.70;16.67;;;3.90;91.80;;;;;;5073485;28;20044;-56
2021/03/03 04:39:51;;;;;;;25.23;15.43;;;3.90;91.80;;;;;;5073621;28;20178;-56
2021/03/03 04:42:17;;;;;;;28.98;17.35;;;3.90;91.80;;;;;;5071301;28;20040;-55
2021/03/03 04:44:43;;;;;;;23.13;14.73;;;3.90;91.80;;;;;;5072594;28;20082;-55
2021/03/03 04:47:08;;;;;;;35.72;20.38;;;3.80;91.90;;;;;;5073360;28;20480;-55
2021/03/03 04:49:34;;;;;;;29.10;17.30;;;3.90;91.90;;;;;;5073659;28;20048;-55
2021/03/03 04:52:00;;;;;;;31.27;18.65;;;3.90;91.80;;;;;;5072948;28;20048;-56
2021/03/03 04:54:26;;;;;;;30.92;17.10;;;3.90;91.80;;;;;;5071704;28;20074;-56
2021/03/03 04:56:51;;;;;;;39.45;22.73;;;4.00;91.90;;;;;;5087195;28;20042;-55
2021/03/03 04:59:17;;;;;;;34.50;21.15;;;4.00;91.70;;;;;;5072534;28;20159;-56
2021/03/03 05:01:43;;;;;;;40.47;22.10;;;4.10;91.80;;;;;;5070579;28;20041;-55
2021/03/03 05:04:09;;;;;;;37.25;19.98;;;4.10;91.70;;;;;;5072003;28;20032;-54
2021/03/03 05:06:35;;;;;;;39.70;21.08;;;4.10;91.60;;;;;;5072723;28;20083;-55
2021/03/03 05:09:01;;;;;;;38.97;22.58;;;4.20;91.60;;;;;;5057120;28;20063;-56
2021/03/03 05:11:26;;;;;;;45.08;22.13;;;4.20;91.60;;;;;;5075645;28;20051;-56
2021/03/03 05:13:52;;;;;;;39.58;22.25;;;4.20;91.60;;;;;;5076719;28;20335;-55
2021/03/03 05:16:18;;;;;;;34.47;20.83;;;4.20;91.50;;;;;;5077042;28;20044;-54
2021/03/03 05:18:44;;;;;;;39.60;21.25;;;4.30;91.50;;;;;;5072980;28;20037;-55
2021/03/03 05:21:11;;;;;;;39.45;22.02;;;4.20;91.40;;;;;;5060754;28;20060;-56
2021/03/03 05:23:37;;;;;;;44.85;23.45;;;4.20;91.40;;;;;;5071080;28;20076;-56
2021/03/03 05:26:04;;;;;;;42.22;23.50;;;4.20;91.40;;;;;;5075963;28;20404;-56
2021/03/03 05:28:33;;;;;;;40.88;22.80;;;4.20;91.50;;;;;;5071037;28;20419;-55
2021/03/03 05:30:59;;;;;;;46.35;24.02;;;4.20;91.40;;;;;;5072599;28;20049;-57
2021/03/03 05:33:30;;;;;;;44.17;23.15;;;4.30;91.50;;;;;;5070217;28;20066;-57
2021/03/03 05:35:58;;;;;;;42.15;24.77;;;4.30;91.40;;;;;;5070878;28;20052;-55
2021/03/03 05:38:24;;;;;;;41.13;22.88;;;4.30;91.40;;;;;;5075501;28;20067;-55
2021/03/03 05:40:52;;;;;;;42.55;23.73;;;4.20;91.30;;;;;;5060778;28;20076;-55
2021/03/03 05:43:18;;;;;;;45.20;23.48;;;4.20;91.40;;;;;;5071744;28;20051;-53
2021/03/03 05:45:46;;;;;;;44.38;24.42;;;4.20;91.40;;;;;;5073034;28;20397;-55
2021/03/03 05:48:21;;;;;;;46.13;24.15;;;4.20;91.40;;;;;;5068686;28;20089;-56
2021/03/03 05:50:51;;;;;;;40.10;22.58;;;4.20;91.40;;;;;;5081433;28;20036;-56
2021/03/03 05:53:17;;;;;;;40.25;23.40;;;4.20;91.40;;;;;;5068199;28;20052;-55
2021/03/03 05:55:43;;;;;;;40.45;23.63;;;4.20;91.30;;;;;;5077990;28;20458;-55
2021/03/03 05:58:10;;;;;;;41.72;23.67;;;4.20;91.40;;;;;;5069957;28;20119;-55
2021/03/03 06:00:37;;;;;;;40.05;21.73;;;4.10;91.40;;;;;;5074850;28;20040;-55
2021/03/03 06:03:04;;;;;;;41.03;22.73;;;4.10;91.30;;;;;;5071645;28;20402;-55
2021/03/03 06:05:31;;;;;;;41.45;22.98;;;4.10;91.40;;;;;;5069299;28;20037;-56
2021/03/03 06:08:05;;;;;;;45.05;24.17;;;4.10;91.40;;;;;;5069684;28;20040;-55
2021/03/03 06:10:33;;;;;;;38.53;22.33;;;4.00;91.40;;;;;;5062798;28;21099;-55
2021/03/03 06:12:59;;;;;;;41.05;23.02;;;4.00;91.40;;;;;;5070276;28;20040;-56
2021/03/03 06:15:26;;;;;;;42.92;23.80;;;4.10;91.50;;;;;;5074310;28;20063;-57
2021/03/03 06:17:53;;;;;;;41.55;22.70;;;4.00;91.50;;;;;;5070096;28;20032;-55
2021/03/03 06:20:19;;;;;;;42.67;23.83;;;4.00;91.50;;;;;;5087932;28;20131;-56
2021/03/03 06:22:45;;;;;;;38.53;22.52;;;3.90;91.50;;;;;;5070397;28;20060;-57
2021/03/03 06:25:22;;;;;;;42.95;24.77;;;4.00;91.60;;;;;;5053143;28;20492;-56
2021/03/03 06:27:48;;;;;;;41.65;23.35;;;4.00;91.50;;;;;;5065045;28;20041;-55
2021/03/03 06:30:18;;;;;;;39.75;21.90;;;4.00;91.40;;;;;;5071556;28;20040;-54
2021/03/03 06:32:56;;;;;;;40.58;23.27;;;4.00;91.40;;;;;;5068094;28;20087;-55
2021/03/03 06:35:32;;;;;;;43.90;25.00;;;4.00;91.50;;;;;;5071158;28;20044;-55
2021/03/03 06:37:58;;;;;;;48.28;24.50;;;4.00;91.50;;;;;;5073926;28;20518;-56
2021/03/03 06:40:24;;;;;;;43.35;24.13;;;4.10;91.40;;;;;;5069980;28;20184;-55
2021/03/03 06:42:55;;;;;;;44.05;24.42;;;4.10;91.40;;;;;;5072123;28;20048;-53
2021/03/03 06:45:26;;;;;;;39.90;22.35;;;4.00;91.50;;;;;;5064470;28;20047;-56
2021/03/03 06:47:52;;;;;;;38.75;21.80;;;4.10;91.40;;;;;;5070481;28;20044;-56
2021/03/03 06:50:19;;;;;;;43.67;24.08;;;4.00;91.30;;;;;;5070182;28;20036;-57
2021/03/03 06:52:45;;;;;;;42.17;23.27;;;4.00;91.40;;;;;;5051261;28;20127;-56
2021/03/03 06:55:13;;;;;;;46.28;24.20;;;4.00;91.40;;;;;;5070246;28;20136;-56
2021/03/03 06:57:39;;;;;;;46.40;25.15;;;4.10;91.40;;;;;;5070369;28;20467;-57
2021/03/03 07:00:09;;;;;;;44.05;24.73;;;4.10;91.50;;;;;;5066396;28;20037;-56
2021/03/03 07:02:37;;;;;;;57.72;26.08;;;4.10;91.50;;;;;;5063822;28;20123;-54
2021/03/03 07:05:04;;;;;;;47.58;25.50;;;4.10;91.50;;;;;;5068665;28;20136;-55
2021/03/03 07:07:30;;;;;;;44.42;25.20;;;4.10;91.60;;;;;;5067975;28;20036;-54
2021/03/03 07:09:58;;;;;;;49.40;26.27;;;4.20;91.60;;;;;;5066340;28;20040;-55
2021/03/03 07:12:30;;;;;;;49.35;26.25;;;4.30;91.50;;;;;;5069939;28;20036;-56
2021/03/03 07:15:00;;;;;;;47.50;26.38;;;4.30;91.50;;;;;;5064836;28;20489;-55
2021/03/03 07:17:37;;;;;;;47.83;27.20;;;4.30;91.40;;;;;;5071429;28;20117;-56
2021/03/03 07:20:14;;;;;;;54.42;29.50;;;4.40;91.40;;;;;;5058723;28;20036;-55
2021/03/03 07:22:42;;;;;;;51.72;28.52;;;4.40;91.30;;;;;;5069730;28;20071;-55
2021/03/03 07:25:13;;;;;;;49.70;27.73;;;4.50;91.40;;;;;;5079924;28;20044;-57
2021/03/03 07:27:40;;;;;;;54.03;27.77;;;4.50;91.40;;;;;;5073568;28;20041;-54
2021/03/03 07:30:14;;;;;;;52.50;27.17;;;4.50;91.30;;;;;;5080594;28;20047;-53
2021/03/03 07:32:41;;;;;;;48.38;26.85;;;4.60;91.40;;;;;;5064004;28;20036;-52
2021/03/03 07:35:10;;;;;;;47.92;26.35;;;4.60;91.40;;;;;;5058866;28;20468;-55
2021/03/03 07:37:41;;;;;;;50.97;27.42;;;4.60;91.40;;;;;;5064258;28;20064;-53
2021/03/03 07:40:12;;;;;;;46.30;25.75;;;4.60;91.40;;;;;;5055197;28;20075;-55
2021/03/03 07:42:40;;;;;;;51.63;26.97;;;4.70;91.50;;;;;;5071605;28;20041;-54
2021/03/03 07:45:07;;;;;;;50.58;26.25;;;4.70;91.40;;;;;;5064302;28;20082;-54
2021/03/03 07:47:39;;;;;;;51.63;26.70;;;4.80;91.50;;;;;;5059901;28;20444;-54
2021/03/03 07:50:09;;;;;;;48.75;27.05;;;4.80;91.40;;;;;;5062284;28;20477;-54
2021/03/03 07:52:37;;;;;;;41.70;23.67;;;4.80;91.40;;;;;;5055369;28;20041;-55
2021/03/03 07:55:04;;;;;;;44.92;23.95;;;4.80;91.30;;;;;;5060982;28;20037;-55
2021/03/03 07:57:34;;;;;;;52.53;25.23;;;4.80;91.20;;;;;;5051776;28;20064;-56
2021/03/03 08:00:05;;;;;;;46.28;25.60;;;4.80;91.20;;;;;;5066664;28;20037;-56
2021/03/03 08:02:43;;;;;;;48.58;25.75;;;4.80;91.20;;;;;;5070080;28;20045;-56
2021/03/03 08:05:10;;;;;;;52.15;26.65;;;4.80;91.20;;;;;;5062532;28;20045;-56
2021/03/03 08:07:36;;;;;;;49.83;26.88;;;4.90;91.20;;;;;;5062794;28;20037;-56
2021/03/03 08:10:14;;;;;;;47.75;25.65;;;4.90;91.20;;;;;;5045167;28;20044;-54
2021/03/03 08:13:03;;;;;;;52.58;26.67;;;4.90;91.20;;;;;;5069465;28;20635;-56
2021/03/03 08:15:34;;;;;;;49.80;27.50;;;5.00;91.30;;;;;;5078119;28;20083;-57
2021/03/03 08:18:19;;;;;;;49.55;28.05;;;5.10;91.30;;;;;;5080282;28;20044;-56
2021/03/03 08:20:48;;;;;;;54.00;28.23;;;5.10;91.30;;;;;;5074416;28;20119;-56
2021/03/03 08:23:32;;;;;;;53.15;29.00;;;5.20;91.10;;;;;;5079769;28;20052;-56
2021/03/03 08:25:59;;;;;;;52.38;28.88;;;5.40;91.20;;;;;;5082226;28;20088;-56
2021/03/03 08:28:37;;;;;;;58.20;29.63;;;5.50;91.00;;;;;;5071356;28;20033;-56
2021/03/03 08:31:11;;;;;;;53.97;29.65;;;5.60;91.10;;;;;;5068095;28;20041;-55
2021/03/03 08:33:44;;;;;;;57.15;30.35;;;5.60;90.90;;;;;;5065957;28;20116;-56
2021/03/03 08:36:31;;;;;;;61.13;30.30;;;5.70;90.90;;;;;;5061155;28;20032;-55
2021/03/03 08:38:57;;;;;;;58.38;30.25;;;5.80;90.90;;;;;;5074253;28;20517;-56
2021/03/03 08:41:30;;;;;;;57.80;31.42;;;5.90;90.80;;;;;;5073117;28;20499;-56
2021/03/03 08:44:04;;;;;;;56.30;32.10;;;5.90;90.80;;;;;;5068964;28;20128;-54
2021/03/03 08:46:31;;;;;;;56.55;31.13;;;6.00;90.70;;;;;;5070138;28;20420;-54
2021/03/03 08:48:57;;;;;;;58.45;33.15;;;6.10;90.70;;;;;;5079273;28;20052;-55
2021/03/03 08:51:30;;;;;;;67.55;33.58;;;6.10;90.70;;;;;;5071528;28;20029;-54
2021/03/03 08:53:58;;;;;;;67.18;34.53;;;6.20;90.80;;;;;;5075293;28;20045;-55
2021/03/03 08:56:48;;;;;;;68.15;36.30;;;6.30;90.80;;;;;;5071630;28;20256;-53
2021/03/03 08:59:37;;;;;;;70.88;36.95;;;6.40;90.70;;;;;;5054446;28;20051;-55
2021/03/03 09:02:05;;;;;;;72.95;37.55;;;6.50;91.00;;;;;;5053468;28;20044;-52
2021/03/03 09:04:34;;;;;;;81.13;39.03;;;6.60;90.80;;;;;;5070572;28;20409;-55
2021/03/03 09:07:05;;;;;;;65.68;37.45;;;6.60;90.90;;;;;;5071454;28;20451;-57
2021/03/03 09:09:42;;;;;;;74.00;39.03;;;6.70;90.80;;;;;;5068292;28;20051;-55
2021/03/03 09:12:10;;;;;;;68.15;36.53;;;6.70;90.80;;;;;;5072256;28;20062;-56
2021/03/03 09:14:38;;;;;;;66.32;37.97;;;6.80;90.80;;;;;;5064446;28;20169;-52
2021/03/03 09:17:06;;;;;;;71.25;36.42;;;6.90;90.70;;;;;;5066081;28;20461;-55
2021/03/03 09:19:33;;;;;;;68.97;37.47;;;6.90;90.80;;;;;;5068725;28;20096;-56
2021/03/03 09:22:00;;;;;;;71.05;38.17;;;7.00;90.70;;;;;;5065291;28;20117;-54
2021/03/03 09:24:26;;;;;;;71.45;39.50;;;7.00;90.80;;;;;;5074603;28;20116;-55
2021/03/03 09:27:08;;;;;;;70.05;39.03;;;7.10;90.80;;;;;;5071056;28;20115;-54
2021/03/03 09:29:36;;;;;;;70.05;37.22;;;7.20;90.90;;;;;;5070753;28;20037;-54
2021/03/03 09:32:13;;;;;;;69.70;37.80;;;7.20;90.80;;;;;;5070736;28;20040;-55
2021/03/03 09:34:46;;;;;;;63.55;36.40;;;7.20;90.80;;;;;;5067578;28;20032;-56
2021/03/03 09:37:12;;;;;;;65.60;36.97;;;7.20;90.70;;;;;;5071979;28;20093;-55
2021/03/03 09:39:38;;;;;;;68.90;37.95;;;7.20;90.80;;;;;;5070063;28;20497;-54
2021/03/03 09:42:07;;;;;;;67.22;36.25;;;7.30;90.80;;;;;;5071925;28;20135;-54
2021/03/03 09:45:04;;;;;;;68.68;37.03;;;7.30;90.90;;;;;;5070225;28;20041;-54
2021/03/03 09:47:32;;;;;;;68.35;38.83;;;7.30;91.10;;;;;;5068911;28;20519;-54
2021/03/03 09:50:07;;;;;;;78.97;41.83;;;7.40;91.00;;;;;;5070989;28;20048;-55
2021/03/03 09:52:45;;;;;;;79.32;41.10;;;7.40;91.20;;;;;;5066317;28;20150;-56
2021/03/03 09:55:16;;;;;;;81.93;40.67;;;7.50;91.00;;;;;;5070030;28;20040;-55
2021/03/03 09:57:43;;;;;;;83.72;42.80;;;7.50;90.90;;;;;;5071134;28;20044;-57
2021/03/03 10:00:15;;;;;;;90.22;45.33;;;7.50;90.90;;;;;;5070408;28;20489;-54
2021/03/03 10:02:47;;;;;;;82.03;45.38;;;7.50;90.90;;;;;;5069840;28;20044;-54
2021/03/03 10:05:21;;;;;;;86.63;46.15;;;7.50;90.90;;;;;;5068866;28;20060;-55
2021/03/03 10:07:52;;;;;;;91.90;46.05;;;7.50;91.00;;;;;;5070978;28;20052;-55
2021/03/03 10:10:21;;;;;;;91.95;47.63;;;7.60;91.00;;;;;;5080899;28;20445;-55
2021/03/03 10:12:47;;;;;;;90.68;47.13;;;7.70;91.10;;;;;;5074537;28;20052;-55
2021/03/03 10:15:15;;;;;;;105.60;48.30;;;7.70;91.10;;;;;;5068974;28;20082;-52
2021/03/03 10:17:43;;;;;;;97.60;49.67;;;7.70;91.10;;;;;;5070760;28;20117;-54
2021/03/03 10:20:11;;;;;;;103.30;51.42;;;7.80;91.10;;;;;;5069276;28;20051;-55
2021/03/03 10:22:42;;;;;;;96.63;47.60;;;7.80;91.10;;;;;;5069650;28;20093;-55
2021/03/03 10:25:10;;;;;;;87.82;47.25;;;7.90;91.20;;;;;;5069154;28;20040;-55
2021/03/03 10:27:40;;;;;;;102.70;49.40;;;8.00;91.20;;;;;;5062484;28;20060;-55
2021/03/03 10:30:26;;;;;;;104.72;51.95;;;8.10;91.10;;;;;;5070775;28;20044;-56
2021/03/03 10:32:53;;;;;;;106.53;54.45;;;8.20;91.10;;;;;;5069702;28;20440;-57
2021/03/03 10:35:21;;;;;;;98.55;52.15;;;8.30;91.00;;;;;;5068514;28;20423;-53
2021/03/03 10:37:47;;;;;;;96.00;50.70;;;8.40;91.00;;;;;;5070767;28;20398;-57
2021/03/03 10:40:14;;;;;;;78.53;44.70;;;8.50;91.10;;;;;;5069871;28;20067;-55
2021/03/03 10:42:41;;;;;;;90.35;46.30;;;8.60;91.00;;;;;;5069575;28;20094;-54
2021/03/03 10:45:24;;;;;;;90.55;47.20;;;8.70;90.80;;;;;;5066321;28;20041;-55
2021/03/03 10:47:51;;;;;;;101.25;53.88;;;8.80;90.60;;;;;;5071456;28;20044;-54
2021/03/03 10:50:20;;;;;;;101.13;52.60;;;8.90;90.50;;;;;;5066652;28;20098;-57
2021/03/03 10:52:55;;;;;;;91.45;49.40;;;8.90;90.60;;;;;;5063271;28;20041;-55
2021/03/03 10:55:23;;;;;;;79.47;44.40;;;8.90;90.40;;;;;;5074076;28;20086;-56
2021/03/03 10:58:12;;;;;;;79.15;43.53;;;9.00;90.30;;;;;;5079947;28;20031;-56
2021/03/03 11:00:58;;;;;;;70.20;40.22;;;9.00;90.10;;;;;;5073897;28;20037;-55
2021/03/03 11:03:25;;;;;;;56.95;34.38;;;9.00;89.80;;;;;;5076335;28;20032;-54
2021/03/03 11:05:53;;;;;;;52.63;33.05;;;8.90;88.90;;;;;;5071781;28;20029;-55
2021/03/03 11:08:20;;;;;;;53.50;32.72;;;8.80;89.10;;;;;;5072372;28;20064;-55
2021/03/03 11:10:46;;;;;;;46.25;30.17;;;8.80;89.40;;;;;;5070098;28;20047;-56
2021/03/03 11:13:12;;;;;;;48.47;30.58;;;8.70;89.20;;;;;;5070478;28;20072;-54
2021/03/03 11:15:43;;;;;;;52.35;33.38;;;8.70;89.20;;;;;;5074173;28;20391;-56
2021/03/03 11:18:09;;;;;;;49.83;30.52;;;8.70;89.00;;;;;;5068885;28;20519;-56
2021/03/03 11:20:36;;;;;;;47.85;31.10;;;8.60;88.90;;;;;;5071422;28;20439;-55
2021/03/03 11:23:02;;;;;;;52.65;33.60;;;8.60;89.20;;;;;;5070380;28;20102;-56
2021/03/03 11:25:28;;;;;;;50.40;31.67;;;8.60;88.80;;;;;;5071598;28;20040;-54
2021/03/03 11:27:54;;;;;;;48.78;32.35;;;8.50;88.80;;;;;;5074483;28;20045;-58
2021/03/03 11:30:20;;;;;;;47.22;30.45;;;8.40;89.00;;;;;;5072977;28;20028;-55
2021/03/03 11:32:45;;;;;;;52.65;32.20;;;8.40;88.80;;;;;;5073035;28;20050;-57
2021/03/03 11:35:11;;;;;;;48.55;32.50;;;8.30;88.90;;;;;;5074158;28;20036;-56
2021/03/03 11:37:37;;;;;;;45.42;31.02;;;8.40;89.00;;;;;;5071351;28;20048;-55
2021/03/03 11:40:04;;;;;;;47.50;30.85;;;8.40;89.20;;;;;;5067412;28;20100;-55
2021/03/03 11:42:29;;;;;;;50.20;32.97;;;8.40;89.30;;;;;;5073999;28;20059;-55
2021/03/03 11:44:55;;;;;;;43.50;28.83;;;8.30;89.10;;;;;;5073883;28;20413;-57
2021/03/03 11:47:22;;;;;;;47.42;31.75;;;8.30;88.60;;;;;;5074577;28;20052;-57
2021/03/03 11:49:47;;;;;;;48.85;31.00;;;8.20;88.70;;;;;;5081396;28;20096;-56
2021/03/03 11:52:14;;;;;;;48.63;32.95;;;8.10;88.70;;;;;;5057577;28;20087;-57
2021/03/03 11:54:39;;;;;;;48.10;31.70;;;8.10;89.20;;;;;;5069301;28;20068;-56
2021/03/03 11:57:05;;;;;;;47.80;31.08;;;8.10;89.60;;;;;;5075877;28;20044;-56
2021/03/03 11:59:31;;;;;;;48.30;32.65;;;8.10;89.40;;;;;;5064239;28;20389;-57
2021/03/03 12:01:58;;;;;;;46.60;30.73;;;8.10;89.50;;;;;;5078881;28;20037;-57
2021/03/03 12:04:24;;;;;;;47.00;29.17;;;8.10;89.30;;;;;;5072108;28;20033;-56
2021/03/03 12:06:51;;;;;;;45.15;29.50;;;8.20;88.80;;;;;;5073817;28;20037;-56
2021/03/03 12:09:17;;;;;;;49.33;30.70;;;8.20;88.30;;;;;;5052209;28;20079;-56
2021/03/03 12:11:43;;;;;;;50.58;32.15;;;8.20;88.40;;;;;;5074136;28;20048;-56
2021/03/03 12:14:09;;;;;;;52.28;33.08;;;8.20;87.70;;;;;;5071880;28;20037;-56
2021/03/03 12:16:35;;;;;;;52.88;31.45;;;8.10;87.90;;;;;;5067453;28;20397;-57
2021/03/03 12:19:01;;;;;;;47.85;30.80;;;8.10;88.00;;;;;;5072581;28;20044;-56
2021/03/03 12:21:27;;;;;;;52.63;32.42;;;8.10;87.50;;;;;;5068400;28;20098;-56
2021/03/03 12:23:53;;;;;;;51.47;30.38;;;8.00;87.70;;;;;;5073346;28;20040;-57
2021/03/03 12:26:19;;;;;;;50.92;31.40;;;8.00;88.10;;;;;;5071923;28;20112;-57
2021/03/03 12:28:44;;;;;;;45.53;29.52;;;8.10;88.10;;;;;;5074464;28;20740;-56
2021/03/03 12:31:12;;;;;;;50.72;30.98;;;8.00;88.20;;;;;;5077693;28;20045;-57
2021/03/03 12:33:38;;;;;;;52.72;31.75;;;8.10;88.20;;;;;;5070952;28;20044;-56
2021/03/03 12:36:06;;;;;;;54.58;30.80;;;8.10;87.50;;;;;;5073321;28;20128;-56
2021/03/03 12:38:31;;;;;;;47.72;30.88;;;8.10;87.20;;;;;;5073334;28;20083;-57
2021/03/03 12:40:57;;;;;;;54.15;32.00;;;8.10;87.20;;;;;;5066008;28;20451;-56
2021/03/03 12:43:23;;;;;;;55.88;32.55;;;8.20;87.40;;;;;;5071816;28;20110;-56